TRLK1: Toronto Lake

Data processed at Thu May 23 2019 23:50


All information presented herein is the property of the government of the United States of America and may be revised or deleted at any time without prior notice.
Dissemination of this information without the expressed written consent of the Public Affairs Office, Tulsa District U.S. Army Corps of Engineers is strictly prohibited.
These data are gathered electronically and, as presented, have not undergone any form of quality control. These data are not guaranteed to be valid or correct.
Go to home page.
Go to station list.
Go to home page.

Upstream stations:

Downstream station:
Previous Day
Next Day
Current Day
    
SHEF ID:       TRLK1     Toronto Lake
STATION TYPE:  RESERVOIR
Flood Pool:  Bottom =   901.50, Top =   931.00

               PRECIP ELEVATION   STORAGE    INFLOW   RELEASE  AIR-TEMP  WIND-DIRWIND-SPEED REL-HUMID SOLAR-RAD   VOLTAGE  BAT-LOAD
                   in        ft     ac-ft       cfs       cfs         F       deg       mph         %      W/m2      volt      volt
              Ccp-Rev   Ccp-Rev   Ccp-Rev  Rev-Regi  Rev-Regi   Ccp-Rev   Ccp-Rev   Ccp-Rev   Ccp-Rev   Ccp-Rev   Ccp-Rev   Ccp-Rev
(US/Central)
05/23 00:00      0.13    931.37    189143     11235     19562     64.89     91.90      2.50     89.20      0.00     13.58     12.89
05/23 01:00      0.03    931.34    188846      9971     11522     62.92     88.30      2.60     89.70      0.00     13.58     12.89
05/23 02:00      0.03    931.30    188450      8944     11512     61.99    100.60      2.00     89.69      0.00     13.58     12.89
05/23 03:00      0.00    931.28    188252      7676     11507     61.34    106.50      1.20     93.40      0.00     13.57     12.89
05/23 04:00      0.05    931.24    187856      7430     11498     61.48     95.00      1.30     93.15      0.00     13.58     12.89
05/23 05:00      0.00    931.21    187559      7661     11490     61.61     88.30      1.50     93.16      0.00     13.58     12.89
05/23 06:00      0.00    931.17    187163      6936     11481     61.68     86.20      2.10     91.26      0.00     13.58     12.89
05/23 07:00      0.00    931.14    186866      7166     11474     61.74    110.20      1.30     90.70      0.00     13.58     12.89
05/23 08:00      0.00    931.09    186371      6438     11462     61.41    110.50      1.50     90.60     16.60     13.58     12.89
05/23 09:00      0.00    931.06    186074      6233     11454     62.58    114.10      1.50     93.27     37.40     13.58     12.89
05/23 10:00      0.00    931.00    185480      6021     11440     63.27    121.10      1.70     88.17     71.30     13.57     12.89
05/23 11:00      0.00    930.95    185004      6288     11428     63.88     82.30      4.60     87.00    117.30     13.58     12.89
05/23 12:00      0.01    930.91    184623      5770     11418     64.58     76.30      6.60     93.41    136.90     13.57     12.89
05/23 13:00      0.00    930.87    184242      5972     11409     66.56     81.10      5.80     94.98     91.70     13.57     12.89
05/23 14:00      0.00    930.85    184052      6121      7576     68.18     83.40      6.50     95.64    156.10     13.57     12.89
05/23 15:00      0.00    930.83    183862      5580      7573     71.01     90.10      6.90     92.49    279.80     13.57     12.89
05/23 16:00      0.00    930.82    183766      5499      7571     74.93     88.50      5.70     88.54    515.10     13.57     12.89
05/23 17:00      0.00    930.79    183481      5496      7566     78.01    118.20      4.90     86.10    328.90     13.57     12.89
05/23 18:00      0.00    930.78    183386      5262      7565     79.36    158.90      5.20     80.65    183.50     13.57     12.89
05/23 19:00      0.00    930.76    183195      5259      7562     79.77    171.50      7.30     76.23    181.50     13.57     12.89
05/23 20:00      0.00    930.73    182910      5256      7557     79.07    168.20      6.70     77.72     64.80     13.57     12.89
05/23 21:00      0.00    930.72    182814      5483      7555     77.31    170.60      7.40     77.95      0.00     13.59     12.89
05/23 22:00      0.00    930.69    182529      5250      7550     75.72    170.10      7.30     78.91      0.00     13.57     12.89
05/23 23:00      0.00    930.69    182529      6630      7550     74.75    168.90      7.30     79.54      0.00     13.57     12.89